VTD146 UZSS-UZSB
Flight info
| Callsign | VTD146 |
|---|---|
| Flight time | 0h 49m |
| Altitude | 10000 |
| Route | OGNOB Y92 TOLIB |
| Aircraft | DA42/L-SDEFGRY/C |
Departure
| Time | 2026-04-14 11:34 |
|---|---|
| Airport | Samarkand International Airport (UZSS) |
Arrival
| Time | 2026-04-14 12:23 |
|---|---|
| Airport | Bukhara International Airport (UZSB) |
| Time | Latitude | Longitude | Altitude | Speed | Heading |
|---|---|---|---|---|---|
| 2026-04-14 11:15 | 39.69733 | 66.98744 | 2202 ft | 0 kts | 186° |
| 2026-04-14 11:28 | 39.69743 | 66.98746 | 2202 ft | 5 kts | 349° |
| 2026-04-14 11:28 | 39.69807 | 66.98762 | 2202 ft | 11 kts | 43° |
| 2026-04-14 11:28 | 39.69807 | 66.98892 | 2203 ft | 18 kts | 98° |
| 2026-04-14 11:28 | 39.69793 | 66.99047 | 2202 ft | 13 kts | 95° |
| 2026-04-14 11:29 | 39.69848 | 66.99121 | 2203 ft | 12 kts | 10° |
| 2026-04-14 11:29 | 39.69939 | 66.99132 | 2205 ft | 13 kts | 3° |
| 2026-04-14 11:29 | 39.70007 | 66.99140 | 2208 ft | 0 kts | 4° |
| 2026-04-14 11:32 | 39.70039 | 66.99145 | 2210 ft | 14 kts | 1° |
| 2026-04-14 11:32 | 39.70099 | 66.99109 | 2210 ft | 0 kts | 276° |
| 2026-04-14 11:33 | 39.70103 | 66.99062 | 2210 ft | 26 kts | 275° |
| 2026-04-14 11:33 | 39.70139 | 66.98567 | 2210 ft | 80 kts | 275° |
| 2026-04-14 11:33 | 39.70200 | 66.97735 | 2318 ft | 99 kts | 277° |
| 2026-04-14 11:34 | 39.70314 | 66.95856 | 2975 ft | 110 kts | 273° |
| 2026-04-14 11:34 | 39.70345 | 66.94874 | 3310 ft | 107 kts | 276° |
| 2026-04-14 11:34 | 39.70476 | 66.93919 | 3574 ft | 108 kts | 278° |
| 2026-04-14 11:34 | 39.70601 | 66.92943 | 3901 ft | 106 kts | 278° |
| 2026-04-14 11:35 | 39.70704 | 66.91993 | 4226 ft | 107 kts | 272° |
| 2026-04-14 11:35 | 39.70788 | 66.91046 | 4609 ft | 105 kts | 275° |
| 2026-04-14 11:35 | 39.70845 | 66.90101 | 4898 ft | 104 kts | 269° |
| 2026-04-14 11:35 | 39.70883 | 66.89148 | 5242 ft | 105 kts | 271° |
| 2026-04-14 11:36 | 39.70942 | 66.88198 | 5561 ft | 107 kts | 271° |
| 2026-04-14 11:36 | 39.71010 | 66.87245 | 5869 ft | 106 kts | 270° |
| 2026-04-14 11:36 | 39.71083 | 66.86283 | 6155 ft | 108 kts | 272° |
| 2026-04-14 11:36 | 39.71156 | 66.85308 | 6517 ft | 108 kts | 271° |
| 2026-04-14 11:37 | 39.71228 | 66.84334 | 6860 ft | 109 kts | 271° |
| 2026-04-14 11:37 | 39.71301 | 66.83349 | 7182 ft | 110 kts | 271° |
| 2026-04-14 11:37 | 39.71378 | 66.82365 | 7489 ft | 109 kts | 271° |
| 2026-04-14 11:37 | 39.71451 | 66.81382 | 7776 ft | 110 kts | 271° |
| 2026-04-14 11:38 | 39.71527 | 66.80394 | 8082 ft | 110 kts | 270° |
| 2026-04-14 11:38 | 39.71602 | 66.79405 | 8408 ft | 110 kts | 270° |
| 2026-04-14 11:38 | 39.71678 | 66.78411 | 8742 ft | 111 kts | 270° |
| 2026-04-14 11:38 | 39.71751 | 66.77428 | 9068 ft | 111 kts | 270° |
| 2026-04-14 11:39 | 39.71827 | 66.76427 | 9380 ft | 111 kts | 269° |
| 2026-04-14 11:39 | 39.71900 | 66.75427 | 9713 ft | 111 kts | 269° |
| 2026-04-14 11:39 | 39.71972 | 66.74415 | 9995 ft | 117 kts | 269° |
| 2026-04-14 11:39 | 39.72053 | 66.73254 | 9998 ft | 140 kts | 270° |
| 2026-04-14 11:40 | 39.72149 | 66.71917 | 9988 ft | 156 kts | 270° |
| 2026-04-14 11:40 | 39.72252 | 66.70489 | 9994 ft | 161 kts | 270° |
| 2026-04-14 11:40 | 39.72357 | 66.69031 | 9996 ft | 163 kts | 271° |
| 2026-04-14 11:40 | 39.72460 | 66.67550 | 9985 ft | 166 kts | 270° |
| 2026-04-14 11:41 | 39.72565 | 66.66056 | 9989 ft | 166 kts | 270° |
| 2026-04-14 11:41 | 39.72670 | 66.64556 | 9991 ft | 167 kts | 270° |
| 2026-04-14 11:41 | 39.72776 | 66.63047 | 9989 ft | 167 kts | 270° |
| 2026-04-14 11:41 | 39.72881 | 66.61539 | 9992 ft | 168 kts | 270° |
| 2026-04-14 11:42 | 39.72988 | 66.60026 | 9989 ft | 168 kts | 270° |
| 2026-04-14 11:42 | 39.73091 | 66.58529 | 9986 ft | 168 kts | 270° |
| 2026-04-14 11:42 | 39.73196 | 66.57023 | 9987 ft | 167 kts | 270° |
| 2026-04-14 11:42 | 39.73301 | 66.55520 | 9990 ft | 167 kts | 270° |
| 2026-04-14 11:43 | 39.73405 | 66.54020 | 9986 ft | 167 kts | 270° |
| 2026-04-14 11:43 | 39.73508 | 66.52517 | 9986 ft | 167 kts | 270° |
| 2026-04-14 11:43 | 39.73612 | 66.51013 | 9982 ft | 167 kts | 270° |
| 2026-04-14 11:43 | 39.73717 | 66.49504 | 9979 ft | 167 kts | 270° |
| 2026-04-14 11:44 | 39.73821 | 66.48003 | 9981 ft | 167 kts | 270° |
| 2026-04-14 11:44 | 39.73924 | 66.46499 | 9981 ft | 167 kts | 270° |
| 2026-04-14 11:44 | 39.74026 | 66.44994 | 9986 ft | 167 kts | 270° |
| 2026-04-14 11:44 | 39.74129 | 66.43489 | 9978 ft | 167 kts | 270° |
| 2026-04-14 11:45 | 39.74232 | 66.41989 | 9982 ft | 167 kts | 270° |
| 2026-04-14 11:45 | 39.74331 | 66.40506 | 9980 ft | 167 kts | 268° |
| 2026-04-14 11:45 | 39.74364 | 66.39008 | 9979 ft | 166 kts | 267° |
| 2026-04-14 11:45 | 39.74407 | 66.37510 | 9978 ft | 166 kts | 267° |
| 2026-04-14 11:46 | 39.74448 | 66.36016 | 9976 ft | 165 kts | 267° |
| 2026-04-14 11:46 | 39.74486 | 66.34518 | 9978 ft | 166 kts | 267° |
| 2026-04-14 11:46 | 39.74524 | 66.33019 | 9980 ft | 166 kts | 266° |
| 2026-04-14 11:46 | 39.74560 | 66.31522 | 9977 ft | 166 kts | 267° |
| 2026-04-14 11:47 | 39.74599 | 66.30022 | 9977 ft | 166 kts | 267° |
| 2026-04-14 11:47 | 39.74636 | 66.28523 | 9980 ft | 166 kts | 267° |
| 2026-04-14 11:47 | 39.74673 | 66.27041 | 9977 ft | 166 kts | 267° |
| 2026-04-14 11:47 | 39.74709 | 66.25544 | 9979 ft | 166 kts | 267° |
| 2026-04-14 11:48 | 39.74747 | 66.24039 | 9975 ft | 166 kts | 267° |
| 2026-04-14 11:48 | 39.74783 | 66.22539 | 9977 ft | 166 kts | 266° |
| 2026-04-14 11:48 | 39.74819 | 66.21035 | 9979 ft | 166 kts | 267° |
| 2026-04-14 11:48 | 39.74856 | 66.19534 | 9976 ft | 166 kts | 267° |
| 2026-04-14 11:49 | 39.74891 | 66.18032 | 9974 ft | 166 kts | 266° |
| 2026-04-14 11:49 | 39.74926 | 66.16529 | 9974 ft | 166 kts | 267° |
| 2026-04-14 11:49 | 39.74962 | 66.15027 | 9975 ft | 166 kts | 267° |
| 2026-04-14 11:49 | 39.74999 | 66.13534 | 9973 ft | 165 kts | 266° |
| 2026-04-14 11:50 | 39.75033 | 66.12044 | 9978 ft | 165 kts | 266° |
| 2026-04-14 11:50 | 39.75067 | 66.10558 | 9974 ft | 165 kts | 266° |
| 2026-04-14 11:50 | 39.75101 | 66.09067 | 9974 ft | 165 kts | 266° |
| 2026-04-14 11:51 | 39.75170 | 66.06094 | 9978 ft | 164 kts | 266° |
| 2026-04-14 11:51 | 39.75203 | 66.04611 | 9974 ft | 164 kts | 266° |
| 2026-04-14 11:51 | 39.75237 | 66.03148 | 9972 ft | 164 kts | 266° |
| 2026-04-14 11:51 | 39.75270 | 66.01668 | 9973 ft | 165 kts | 266° |
| 2026-04-14 11:52 | 39.75303 | 66.00174 | 9971 ft | 165 kts | 266° |
| 2026-04-14 11:52 | 39.75337 | 65.98687 | 9968 ft | 164 kts | 266° |
| 2026-04-14 11:52 | 39.75370 | 65.97201 | 9966 ft | 165 kts | 266° |
| 2026-04-14 11:52 | 39.75402 | 65.95716 | 9965 ft | 164 kts | 266° |
| 2026-04-14 11:53 | 39.75436 | 65.94238 | 9963 ft | 163 kts | 267° |
| 2026-04-14 11:53 | 39.75468 | 65.92762 | 9964 ft | 163 kts | 266° |
| 2026-04-14 11:53 | 39.75497 | 65.91287 | 9964 ft | 164 kts | 266° |
| 2026-04-14 11:53 | 39.75528 | 65.89807 | 9965 ft | 164 kts | 266° |
| 2026-04-14 11:54 | 39.75561 | 65.88331 | 9968 ft | 164 kts | 267° |
| 2026-04-14 11:54 | 39.75594 | 65.86849 | 9965 ft | 164 kts | 266° |
| 2026-04-14 11:54 | 39.75624 | 65.85367 | 9965 ft | 164 kts | 266° |
| 2026-04-14 11:54 | 39.75657 | 65.83884 | 9963 ft | 164 kts | 267° |
| 2026-04-14 11:55 | 39.75689 | 65.82403 | 9968 ft | 164 kts | 267° |
| 2026-04-14 11:55 | 39.75718 | 65.80915 | 9965 ft | 165 kts | 266° |
| 2026-04-14 11:55 | 39.75748 | 65.79426 | 9964 ft | 165 kts | 266° |
| 2026-04-14 11:55 | 39.75778 | 65.77936 | 9967 ft | 164 kts | 266° |
| 2026-04-14 11:56 | 39.75808 | 65.76469 | 9967 ft | 165 kts | 267° |
| 2026-04-14 11:56 | 39.75838 | 65.74979 | 9964 ft | 165 kts | 267° |
| 2026-04-14 11:56 | 39.75870 | 65.73487 | 9963 ft | 165 kts | 266° |
| 2026-04-14 11:56 | 39.75898 | 65.71997 | 9967 ft | 165 kts | 267° |
| 2026-04-14 11:57 | 39.75928 | 65.70510 | 9964 ft | 163 kts | 266° |
| 2026-04-14 11:57 | 39.75948 | 65.69511 | 9967 ft | 164 kts | 267° |
| 2026-04-14 11:57 | 39.75976 | 65.68025 | 9962 ft | 164 kts | 267° |
| 2026-04-14 11:57 | 39.76049 | 65.66559 | 9961 ft | 167 kts | 276° |
| 2026-04-14 11:58 | 39.76298 | 65.65083 | 9963 ft | 167 kts | 277° |
| 2026-04-14 11:58 | 39.76552 | 65.63607 | 9960 ft | 167 kts | 277° |
| 2026-04-14 11:58 | 39.76807 | 65.62130 | 9960 ft | 167 kts | 277° |
| 2026-04-14 11:58 | 39.77060 | 65.60657 | 9960 ft | 167 kts | 277° |
| 2026-04-14 11:59 | 39.77312 | 65.59185 | 9963 ft | 167 kts | 277° |
| 2026-04-14 11:59 | 39.77564 | 65.57707 | 9963 ft | 167 kts | 277° |
| 2026-04-14 11:59 | 39.77816 | 65.56231 | 9959 ft | 167 kts | 277° |
| 2026-04-14 11:59 | 39.78067 | 65.54756 | 9959 ft | 167 kts | 277° |
| 2026-04-14 12:00 | 39.78320 | 65.53281 | 9952 ft | 167 kts | 277° |
| 2026-04-14 12:00 | 39.78571 | 65.51806 | 9960 ft | 167 kts | 277° |
| 2026-04-14 12:00 | 39.78822 | 65.50332 | 9960 ft | 167 kts | 277° |
| 2026-04-14 12:00 | 39.79072 | 65.48858 | 9958 ft | 166 kts | 277° |
| 2026-04-14 12:01 | 39.79322 | 65.47387 | 9955 ft | 166 kts | 277° |
| 2026-04-14 12:01 | 39.79572 | 65.45923 | 9954 ft | 166 kts | 277° |
| 2026-04-14 12:01 | 39.79820 | 65.44457 | 9953 ft | 166 kts | 277° |
| 2026-04-14 12:01 | 39.80066 | 65.43007 | 9953 ft | 166 kts | 277° |
| 2026-04-14 12:02 | 39.80315 | 65.41540 | 9953 ft | 166 kts | 277° |
| 2026-04-14 12:02 | 39.80562 | 65.40077 | 9949 ft | 166 kts | 277° |
| 2026-04-14 12:02 | 39.80810 | 65.38614 | 9949 ft | 165 kts | 277° |
| 2026-04-14 12:02 | 39.81056 | 65.37157 | 9951 ft | 165 kts | 277° |
| 2026-04-14 12:03 | 39.81303 | 65.35697 | 9954 ft | 165 kts | 277° |
| 2026-04-14 12:03 | 39.81548 | 65.34240 | 9953 ft | 165 kts | 277° |
| 2026-04-14 12:03 | 39.81794 | 65.32785 | 9952 ft | 164 kts | 277° |
| 2026-04-14 12:03 | 39.82040 | 65.31328 | 9953 ft | 165 kts | 277° |
| 2026-04-14 12:04 | 39.82285 | 65.29871 | 9946 ft | 165 kts | 277° |
| 2026-04-14 12:04 | 39.82530 | 65.28413 | 9954 ft | 165 kts | 277° |
| 2026-04-14 12:04 | 39.82774 | 65.26958 | 9955 ft | 164 kts | 277° |
| 2026-04-14 12:04 | 39.83018 | 65.25505 | 9945 ft | 164 kts | 277° |
| 2026-04-14 12:05 | 39.83262 | 65.24055 | 9948 ft | 164 kts | 277° |
| 2026-04-14 12:05 | 39.83501 | 65.22644 | 9943 ft | 155 kts | 277° |
| 2026-04-14 12:05 | 39.83728 | 65.21302 | 9942 ft | 149 kts | 277° |
| 2026-04-14 12:05 | 39.83944 | 65.20007 | 9948 ft | 145 kts | 276° |
| 2026-04-14 12:06 | 39.84154 | 65.18740 | 9947 ft | 142 kts | 276° |
| 2026-04-14 12:06 | 39.84359 | 65.17510 | 9944 ft | 140 kts | 276° |
| 2026-04-14 12:06 | 39.84564 | 65.16281 | 9944 ft | 138 kts | 276° |
| 2026-04-14 12:06 | 39.84767 | 65.15059 | 9945 ft | 138 kts | 276° |
| 2026-04-14 12:07 | 39.84970 | 65.13843 | 9943 ft | 138 kts | 276° |
| 2026-04-14 12:07 | 39.85172 | 65.12625 | 9944 ft | 138 kts | 276° |
| 2026-04-14 12:07 | 39.85376 | 65.11403 | 9943 ft | 139 kts | 276° |
| 2026-04-14 12:07 | 39.85581 | 65.10175 | 9935 ft | 140 kts | 276° |
| 2026-04-14 12:08 | 39.85793 | 65.08898 | 9765 ft | 149 kts | 276° |
| 2026-04-14 12:08 | 39.86017 | 65.07549 | 9563 ft | 156 kts | 277° |
| 2026-04-14 12:08 | 39.86250 | 65.06146 | 9349 ft | 161 kts | 277° |
| 2026-04-14 12:08 | 39.86493 | 65.04699 | 9129 ft | 165 kts | 277° |
| 2026-04-14 12:09 | 39.86736 | 65.03224 | 8906 ft | 168 kts | 277° |
| 2026-04-14 12:09 | 39.86982 | 65.01734 | 8688 ft | 169 kts | 277° |
| 2026-04-14 12:09 | 39.87226 | 65.00258 | 8460 ft | 169 kts | 277° |
| 2026-04-14 12:09 | 39.87475 | 64.98754 | 8243 ft | 170 kts | 277° |
| 2026-04-14 12:10 | 39.87724 | 64.97245 | 8006 ft | 170 kts | 277° |
| 2026-04-14 12:10 | 39.87975 | 64.95729 | 7776 ft | 172 kts | 278° |
| 2026-04-14 12:10 | 39.88226 | 64.94209 | 7550 ft | 172 kts | 278° |
| 2026-04-14 12:10 | 39.88477 | 64.92689 | 7320 ft | 171 kts | 278° |
| 2026-04-14 12:11 | 39.88727 | 64.91169 | 7092 ft | 171 kts | 278° |
| 2026-04-14 12:11 | 39.88977 | 64.89655 | 6867 ft | 170 kts | 278° |
| 2026-04-14 12:11 | 39.89224 | 64.88151 | 6637 ft | 169 kts | 278° |
| 2026-04-14 12:11 | 39.89470 | 64.86655 | 6405 ft | 168 kts | 278° |
| 2026-04-14 12:12 | 39.89715 | 64.85163 | 6178 ft | 168 kts | 278° |
| 2026-04-14 12:12 | 39.89954 | 64.83704 | 5954 ft | 167 kts | 278° |
| 2026-04-14 12:12 | 39.90194 | 64.82228 | 5733 ft | 166 kts | 279° |
| 2026-04-14 12:12 | 39.90436 | 64.80760 | 5516 ft | 166 kts | 278° |
| 2026-04-14 12:13 | 39.90678 | 64.79281 | 5289 ft | 167 kts | 278° |
| 2026-04-14 12:13 | 39.90919 | 64.77802 | 5070 ft | 166 kts | 278° |
| 2026-04-14 12:13 | 39.91160 | 64.76328 | 4853 ft | 167 kts | 278° |
| 2026-04-14 12:13 | 39.91402 | 64.74842 | 4620 ft | 167 kts | 279° |
| 2026-04-14 12:14 | 39.91644 | 64.73365 | 4403 ft | 167 kts | 278° |
| 2026-04-14 12:14 | 39.91885 | 64.71884 | 4184 ft | 167 kts | 279° |
| 2026-04-14 12:14 | 39.92126 | 64.70396 | 3957 ft | 168 kts | 278° |
| 2026-04-14 12:14 | 39.92369 | 64.68900 | 3722 ft | 169 kts | 278° |
| 2026-04-14 12:15 | 39.92615 | 64.67401 | 3499 ft | 169 kts | 279° |
| 2026-04-14 12:15 | 39.92859 | 64.65892 | 3273 ft | 172 kts | 278° |
| 2026-04-14 12:15 | 39.93104 | 64.64377 | 3059 ft | 172 kts | 279° |
| 2026-04-14 12:15 | 39.93354 | 64.62834 | 2821 ft | 173 kts | 279° |
| 2026-04-14 12:16 | 39.93605 | 64.61287 | 2577 ft | 175 kts | 280° |
| 2026-04-14 12:16 | 39.93713 | 64.59740 | 2416 ft | 167 kts | 261° |
| 2026-04-14 12:16 | 39.93468 | 64.58322 | 2401 ft | 156 kts | 253° |
| 2026-04-14 12:16 | 39.93207 | 64.56996 | 2408 ft | 149 kts | 252° |
| 2026-04-14 12:17 | 39.92952 | 64.55733 | 2472 ft | 141 kts | 252° |
| 2026-04-14 12:17 | 39.92707 | 64.54518 | 2485 ft | 138 kts | 251° |
| 2026-04-14 12:17 | 39.92463 | 64.53323 | 2491 ft | 135 kts | 252° |
| 2026-04-14 12:17 | 39.92090 | 64.52236 | 2487 ft | 129 kts | 227° |
| 2026-04-14 12:18 | 39.91392 | 64.51529 | 2503 ft | 129 kts | 200° |
| 2026-04-14 12:18 | 39.90530 | 64.51262 | 2496 ft | 129 kts | 187° |
| 2026-04-14 12:18 | 39.89648 | 64.51054 | 2503 ft | 129 kts | 188° |
| 2026-04-14 12:18 | 39.88772 | 64.50848 | 2481 ft | 124 kts | 188° |
| 2026-04-14 12:19 | 39.87943 | 64.50655 | 2494 ft | 118 kts | 187° |
| 2026-04-14 12:19 | 39.87109 | 64.50462 | 2371 ft | 125 kts | 187° |
| 2026-04-14 12:19 | 39.86233 | 64.50257 | 2203 ft | 128 kts | 187° |
| 2026-04-14 12:19 | 39.85404 | 64.50060 | 2100 ft | 111 kts | 186° |
| 2026-04-14 12:20 | 39.84685 | 64.49876 | 2007 ft | 96 kts | 189° |
| 2026-04-14 12:20 | 39.84049 | 64.49727 | 1853 ft | 91 kts | 182° |
| 2026-04-14 12:20 | 39.83427 | 64.49617 | 1689 ft | 91 kts | 192° |
| 2026-04-14 12:20 | 39.82802 | 64.49438 | 1530 ft | 93 kts | 187° |
| 2026-04-14 12:21 | 39.82177 | 64.49305 | 1431 ft | 91 kts | 189° |
| 2026-04-14 12:21 | 39.81573 | 64.49175 | 1351 ft | 87 kts | 187° |
| 2026-04-14 12:21 | 39.80964 | 64.49028 | 1269 ft | 89 kts | 188° |
| 2026-04-14 12:21 | 39.80354 | 64.48903 | 1142 ft | 91 kts | 195° |
| 2026-04-14 12:22 | 39.79743 | 64.48747 | 1013 ft | 87 kts | 192° |
| 2026-04-14 12:22 | 39.79145 | 64.48609 | 870 ft | 89 kts | 191° |
| 2026-04-14 12:22 | 39.78555 | 64.48469 | 758 ft | 81 kts | 190° |
| 2026-04-14 12:22 | 39.78084 | 64.48356 | 748 ft | 52 kts | 190° |
| 2026-04-14 12:23 | 39.77817 | 64.48296 | 751 ft | 30 kts | 191° |
| 2026-04-14 12:23 | 39.77635 | 64.48253 | 751 ft | 25 kts | 190° |
| 2026-04-14 12:23 | 39.77471 | 64.48215 | 751 ft | 23 kts | 189° |
| 2026-04-14 12:23 | 39.77318 | 64.48180 | 750 ft | 21 kts | 190° |
| 2026-04-14 12:24 | 39.77178 | 64.48147 | 752 ft | 20 kts | 189° |
| 2026-04-14 12:24 | 39.77036 | 64.48114 | 748 ft | 21 kts | 191° |
| 2026-04-14 12:24 | 39.76895 | 64.48082 | 750 ft | 20 kts | 190° |
| 2026-04-14 12:24 | 39.76764 | 64.48049 | 749 ft | 19 kts | 188° |
| 2026-04-14 12:25 | 39.76651 | 64.48010 | 749 ft | 11 kts | 228° |
| 2026-04-14 12:25 | 39.76646 | 64.47898 | 751 ft | 15 kts | 277° |
| 2026-04-14 12:25 | 39.76692 | 64.47825 | 750 ft | 9 kts | 335° |
| 2026-04-14 12:25 | 39.76713 | 64.47766 | 749 ft | 9 kts | 279° |
| 2026-04-14 12:26 | 39.76732 | 64.47695 | 749 ft | 7 kts | 275° |
| 2026-04-14 12:26 | 39.76686 | 64.47659 | 748 ft | 9 kts | 188° |
| 2026-04-14 12:26 | 39.76667 | 64.47655 | 749 ft | 0 kts | 191° |